Bedford, Massachusetts
Current Conditions -  °F | °C
As of 3:12 PM on Tuesday 21 Oct 2014 (Local Time) from KBED Reporting Station
Light Rain Light Rain  
Wind Chill: 60°   Ceiling: 3200
Heat Index: 60°   Visibility: 10mi
Dew Point: 55°   Wind: 10mph
Humidity: 83%   Direction: 90°E
Pressure: 29.9"   Gusts: NA
Location:  42.49°N, 71.28°W
Report Text: KBED 211912Z 09009KT 10SM -RA SCT024 OVC032 16/13 A2990 RMK AO2 P0000 T01560128
Loading
Personal Weather Stations






























Interactive Weather Map New forecast layout! Learn more

10-Day Weather Forecast

Advertisements
Track Severe Weather on mobile